Aviation Digital Data Service (ADDS)

Output produced by TAFs form (1916 UTC 21 April 2018)
found at http://aviationweather.gov/adds/tafs/
 
Forecast for: RJOK (KOCHI AIRPORT , JP)
Text: TAF RJOK 211707Z 2118/2300 35008KT CAVOK
Forecast period: 1800 UTC 21 April 2018 to 0000 UTC 22 April 2018
Forecast type: FROM: standard forecast or significant change
Winds: from the N (350 degrees) at 9 MPH (8 knots; 4.2 m/s)
Visibility: 6 or more miles (10+ km)
Clouds: not forecast
Weather: NSW  (no significant weather)
Forecast for: RJOK (KOCHI AIRPORT , JP)
Text: TAF RJOK 211707Z 2118/2300 35008KT CAVOK
Forecast period: 1800 UTC 21 April 2018 to 0000 UTC 22 April 2018
Forecast type: FROM: standard forecast or significant change
Winds: from the N (350 degrees) at 9 MPH (8 knots; 4.2 m/s)
Visibility: 6 or more miles (10+ km)
Clouds: not forecast
Weather: NSW  (no significant weather)
Forecast for: RJOK (KOCHI AIRPORT , JP)
Text: TAF RJOK 211707Z 2118/2300 35008KT CAVOK
Forecast period: 0000 to 0900 UTC 22 April 2018
Forecast type: BECOMING: Conditions expected to become as follows by 0200 UTC 22 April 2018
Winds: from the S (190 degrees) at 7 MPH (6 knots; 3.1 m/s)
Visibility: 6 or more miles (10+ km)
Weather: NSW  (no significant weather)
Forecast for: RJOK (KOCHI AIRPORT , JP)
Text: TAF RJOK 211707Z 2118/2300 35008KT CAVOK
Forecast period: 0000 to 0900 UTC 22 April 2018
Forecast type: BECOMING: Conditions expected to become as follows by 0200 UTC 22 April 2018
Winds: from the S (190 degrees) at 7 MPH (6 knots; 3.1 m/s)
Visibility: 6 or more miles (10+ km)
Weather: NSW  (no significant weather)
Forecast for: RJOK (KOCHI AIRPORT , JP)
Text: TAF RJOK 211707Z 2118/2300 35008KT CAVOK
Forecast period: 0900 UTC 22 April 2018 to 0000 UTC 23 April 2018
Forecast type: BECOMING: Conditions expected to become as follows by 1200 UTC 22 April 2018
Winds: from the N (350 degrees) at 7 MPH (6 knots; 3.1 m/s)
Visibility: 6 or more miles (10+ km)
Weather: NSW  (no significant weather)
Forecast for: RJOK (KOCHI AIRPORT , JP)
Text: TAF RJOK 211707Z 2118/2300 35008KT CAVOK
Forecast period: 0900 UTC 22 April 2018 to 0000 UTC 23 April 2018
Forecast type: BECOMING: Conditions expected to become as follows by 1200 UTC 22 April 2018
Winds: from the N (350 degrees) at 7 MPH (6 knots; 3.1 m/s)
Visibility: 6 or more miles (10+ km)
Weather: NSW  (no significant weather)